Time;durP1;ratioP1;P1;durP2;ratioP2;P2;SDS_P1;SDS_P2;PMS_P1;PMS_P2;Temp;Humidity;BMP_temperature;BMP_pressure;BME280_temperature;BME280_humidity;BME280_pressure;Samples;Min_cycle;Max_cycle;Signal;HPM_P1;HPM_P2
2021/10/11 00:00:35;;;;;;;15.98;5.20;;;10.60;93.10;;;;;;5074654;28;20478;-80
2021/10/11 00:03:01;;;;;;;16.52;5.53;;;10.60;93.10;;;;;;5074713;28;20130;-79
2021/10/11 00:05:26;;;;;;;15.00;5.05;;;10.50;93.10;;;;;;5056755;28;20119;-79
2021/10/11 00:07:52;;;;;;;14.00;4.93;;;10.50;93.20;;;;;;5092582;28;20474;-78
2021/10/11 00:10:21;;;;;;;18.83;5.65;;;10.50;93.20;;;;;;5092656;28;20020;-78
2021/10/11 00:12:54;;;;;;;12.32;4.65;;;10.50;93.20;;;;;;5091498;28;20024;-81
2021/10/11 00:15:21;;;;;;;15.27;5.13;;;10.50;93.20;;;;;;5092564;28;20048;-81
2021/10/11 00:17:47;;;;;;;16.08;4.38;;;10.40;93.20;;;;;;5091267;28;20020;-79
2021/10/11 00:20:14;;;;;;;15.55;4.25;;;10.40;93.30;;;;;;5092480;28;20024;-78
2021/10/11 00:22:41;;;;;;;15.35;4.28;;;10.40;93.40;;;;;;5092377;28;20173;-79
2021/10/11 00:25:07;;;;;;;17.25;4.43;;;10.40;93.40;;;;;;5090920;28;20073;-76
2021/10/11 00:27:34;;;;;;;21.52;4.78;;;10.40;93.40;;;;;;5091060;28;20024;-79
2021/10/11 00:29:59;;;;;;;;;;;10.40;93.50;;;;;;5074584;28;20124;-79
2021/10/11 00:32:26;;;;;;;12.88;4.47;;;10.40;93.50;;;;;;5092358;28;19954;-79
2021/10/11 00:34:52;;;;;;;14.60;4.38;;;10.30;93.40;;;;;;5074010;28;20028;-77
2021/10/11 00:37:17;;;;;;;15.13;6.03;;;10.30;93.50;;;;;;5090868;28;20029;-78
2021/10/11 00:39:43;;;;;;;32.13;14.63;;;10.40;93.60;;;;;;5092169;28;20501;-77
2021/10/11 00:42:09;;;;;;;31.23;13.00;;;10.40;93.60;;;;;;5092109;28;20067;-81
2021/10/11 00:44:35;;;;;;;21.98;8.02;;;10.40;93.70;;;;;;5090664;28;20024;-77
2021/10/11 00:47:00;;;;;;;20.30;5.82;;;10.40;93.80;;;;;;5091895;28;20032;-79
2021/10/11 00:49:26;;;;;;;8.88;4.15;;;10.40;93.80;;;;;;5073630;28;20047;-78
2021/10/11 00:51:52;;;;;;;22.38;10.35;;;10.40;93.70;;;;;;5090480;28;20027;-79
2021/10/11 00:54:19;;;;;;;30.15;13.85;;;10.40;93.70;;;;;;5091849;28;20038;-78
2021/10/11 00:56:45;;;;;;;17.60;5.95;;;10.40;93.60;;;;;;5090598;28;20067;-77
2021/10/11 00:59:11;;;;;;;11.77;3.95;;;10.40;93.60;;;;;;5090472;28;20443;-79
2021/10/11 01:01:37;;;;;;;17.60;3.70;;;10.40;93.70;;;;;;5090499;28;20036;-79
2021/10/11 01:04:05;;;;;;;13.70;3.58;;;10.30;93.70;;;;;;5091750;28;20058;-78
2021/10/11 01:06:36;;;;;;;15.80;4.03;;;10.30;93.70;;;;;;5073896;28;20027;-79
2021/10/11 01:09:06;;;;;;;16.63;3.90;;;10.30;93.80;;;;;;5090198;28;20028;-78
2021/10/11 01:11:32;;;;;;;14.13;3.85;;;10.30;93.80;;;;;;5091609;28;20031;-79
2021/10/11 01:13:58;;;;;;;13.88;3.95;;;10.20;93.80;;;;;;5091669;28;20433;-77
2021/10/11 01:16:23;;;;;;;16.38;3.70;;;10.20;93.80;;;;;;5089801;28;20043;-77
2021/10/11 01:18:49;;;;;;;13.73;3.70;;;10.10;93.80;;;;;;5091535;28;20043;-80
2021/10/11 01:21:15;;;;;;;9.48;3.35;;;10.00;93.90;;;;;;5073333;28;20038;-79
2021/10/11 01:23:41;;;;;;;13.70;3.88;;;10.00;93.90;;;;;;5091636;28;20024;-76
2021/10/11 01:26:06;;;;;;;12.98;3.88;;;9.90;94.00;;;;;;5090157;28;20428;-79
2021/10/11 01:28:32;;;;;;;18.92;4.35;;;9.90;94.10;;;;;;5091337;28;20040;-78
2021/10/11 01:30:58;;;;;;;16.48;4.20;;;9.80;94.10;;;;;;5091386;28;20046;-78
2021/10/11 01:33:24;;;;;;;17.70;3.65;;;9.80;94.20;;;;;;5090059;28;20024;-77
2021/10/11 01:35:50;;;;;;;;;;;9.80;94.40;;;;;;5090408;28;20036;-78
2021/10/11 01:38:15;;;;;;;15.43;3.80;;;9.80;94.40;;;;;;5091323;28;19949;-81
2021/10/11 01:40:41;;;;;;;20.40;6.88;;;9.80;94.30;;;;;;5073267;28;20036;-79
2021/10/11 01:43:08;;;;;;;17.60;4.20;;;9.80;94.40;;;;;;5091260;28;20036;-78
2021/10/11 01:45:35;;;;;;;16.10;3.65;;;9.80;94.50;;;;;;5091193;28;20032;-77
2021/10/11 01:48:03;;;;;;;12.98;3.67;;;9.80;94.50;;;;;;5090874;28;20024;-78
2021/10/11 01:50:29;;;;;;;18.33;3.88;;;9.90;94.60;;;;;;5073269;28;20119;-80
2021/10/11 01:52:55;;;;;;;16.23;3.63;;;9.90;94.60;;;;;;5091107;28;20017;-78
2021/10/11 01:55:20;;;;;;;15.98;4.05;;;9.90;94.60;;;;;;5089712;28;20499;-77
2021/10/11 01:57:46;;;;;;;17.50;4.30;;;9.90;94.60;;;;;;5091099;28;20059;-77
2021/10/11 02:00:12;;;;;;;13.30;4.57;;;9.80;94.60;;;;;;5072928;28;20395;-77
2021/10/11 02:02:38;;;;;;;15.93;4.53;;;9.90;94.60;;;;;;5091010;28;20020;-77
2021/10/11 02:05:06;;;;;;;14.80;4.22;;;9.80;94.60;;;;;;5072871;28;20032;-78
2021/10/11 02:07:32;;;;;;;12.50;4.22;;;9.80;94.60;;;;;;5090946;28;20452;-77
2021/10/11 02:09:58;;;;;;;14.75;3.75;;;9.70;94.70;;;;;;5090896;28;20523;-77
2021/10/11 02:12:24;;;;;;;17.48;4.60;;;9.70;94.70;;;;;;5089807;28;20043;-79
2021/10/11 02:14:49;;;;;;;20.30;6.18;;;9.70;94.80;;;;;;5090992;28;20070;-79
2021/10/11 02:17:16;;;;;;;19.85;4.18;;;9.70;94.80;;;;;;5090787;28;20035;-80
2021/10/11 02:19:42;;;;;;;16.33;4.55;;;9.70;95.10;;;;;;5090850;28;20071;-78
2021/10/11 02:22:08;;;;;;;15.05;4.07;;;9.60;94.90;;;;;;5089511;28;20462;-77
2021/10/11 02:24:34;;;;;;;19.75;5.20;;;9.60;94.90;;;;;;5089657;28;20060;-77
2021/10/11 02:27:00;;;;;;;14.00;4.22;;;9.60;94.90;;;;;;5090847;28;20107;-76
2021/10/11 02:29:27;;;;;;;21.08;4.60;;;9.60;95.10;;;;;;5094518;28;20111;-79
2021/10/11 02:31:54;;;;;;;16.40;4.55;;;9.60;94.90;;;;;;5093320;28;20029;-77
2021/10/11 02:34:19;;;;;;;;;;;9.50;94.90;;;;;;5093704;28;20394;-77
2021/10/11 02:36:45;;;;;;;16.10;4.28;;;9.50;95.00;;;;;;5093072;28;19908;-80
2021/10/11 02:39:11;;;;;;;11.60;3.83;;;9.50;94.90;;;;;;5093055;28;20039;-77
2021/10/11 02:41:36;;;;;;;15.98;4.82;;;9.40;94.90;;;;;;5094510;28;20032;-79
2021/10/11 02:44:02;;;;;;;13.00;4.68;;;9.40;95.00;;;;;;5093124;28;20527;-78
2021/10/11 02:46:28;;;;;;;14.43;4.53;;;9.40;95.10;;;;;;5094214;28;20036;-79
2021/10/11 02:48:54;;;;;;;22.67;5.30;;;9.40;95.10;;;;;;5092779;28;20108;-78
2021/10/11 02:51:19;;;;;;;14.63;5.18;;;9.40;95.20;;;;;;5092878;28;20024;-78
2021/10/11 02:53:49;;;;;;;21.60;4.30;;;9.40;95.30;;;;;;5092846;28;20118;-79
2021/10/11 02:56:16;;;;;;;17.45;5.32;;;9.40;95.30;;;;;;5092905;28;20035;-79
2021/10/11 02:58:42;;;;;;;16.95;4.47;;;9.40;95.40;;;;;;5092758;28;20504;-77
2021/10/11 03:01:08;;;;;;;13.00;4.35;;;9.40;95.50;;;;;;5093074;28;20064;-78
2021/10/11 03:03:33;;;;;;;18.27;4.30;;;9.40;95.50;;;;;;5092647;28;20440;-81
2021/10/11 03:05:59;;;;;;;11.20;3.75;;;9.40;95.60;;;;;;5075680;28;20039;-77
2021/10/11 03:08:25;;;;;;;14.95;4.38;;;9.40;95.60;;;;;;5093875;28;20529;-76
2021/10/11 03:10:50;;;;;;;12.20;3.80;;;9.50;95.60;;;;;;5092601;28;20073;-79
2021/10/11 03:13:16;;;;;;;15.27;3.67;;;9.50;95.70;;;;;;5093816;28;20498;-78
2021/10/11 03:15:42;;;;;;;16.35;4.65;;;9.50;95.70;;;;;;5093684;28;20032;-76
2021/10/11 03:18:08;;;;;;;16.63;3.85;;;9.50;95.60;;;;;;5093728;28;20028;-77
2021/10/11 03:20:33;;;;;;;16.90;5.10;;;9.50;95.60;;;;;;5093660;28;20030;-80
2021/10/11 03:22:59;;;;;;;16.77;4.30;;;9.40;95.60;;;;;;5093563;28;20233;-79
2021/10/11 03:25:25;;;;;;;16.27;3.88;;;9.40;95.60;;;;;;5093512;28;20039;-76
2021/10/11 03:27:50;;;;;;;14.13;4.15;;;9.40;95.60;;;;;;5093394;28;20036;-77
2021/10/11 03:30:16;;;;;;;15.25;4.60;;;9.40;95.60;;;;;;5093455;28;20024;-77
2021/10/11 03:32:42;;;;;;;14.65;3.92;;;9.40;95.60;;;;;;5093712;28;20076;-80
2021/10/11 03:35:08;;;;;;;16.70;4.10;;;9.30;95.60;;;;;;5091965;28;20028;-78
2021/10/11 03:37:33;;;;;;;13.52;4.20;;;9.30;95.60;;;;;;5092060;28;20100;-77
2021/10/11 03:39:59;;;;;;;19.05;4.82;;;9.30;95.70;;;;;;5091813;28;20039;-79
2021/10/11 03:42:25;;;;;;;12.18;4.22;;;9.30;95.70;;;;;;5075084;28;20047;-78
2021/10/11 03:44:51;;;;;;;;;;;9.30;95.70;;;;;;5093595;28;20098;-79
2021/10/11 03:47:17;;;;;;;15.45;5.38;;;9.30;95.70;;;;;;5093032;28;19929;-80
2021/10/11 03:49:42;;;;;;;12.07;4.28;;;9.30;95.60;;;;;;5091630;28;20048;-80
2021/10/11 03:52:08;;;;;;;13.88;4.10;;;9.20;95.60;;;;;;5093045;28;20028;-78
2021/10/11 03:54:34;;;;;;;19.67;3.85;;;9.20;95.60;;;;;;5091537;28;20523;-79
2021/10/11 03:57:00;;;;;;;13.63;4.45;;;9.20;95.70;;;;;;5092661;28;20036;-80
2021/10/11 03:59:25;;;;;;;11.45;4.25;;;9.20;95.70;;;;;;5091254;28;20028;-78
2021/10/11 04:01:51;;;;;;;14.85;4.20;;;9.20;95.80;;;;;;5091518;28;20032;-78
2021/10/11 04:04:17;;;;;;;15.98;3.70;;;9.20;95.90;;;;;;5092788;28;20040;-80
2021/10/11 04:06:43;;;;;;;13.18;3.85;;;9.20;96.00;;;;;;5091357;28;20052;-79
2021/10/11 04:09:09;;;;;;;14.02;4.80;;;9.10;96.00;;;;;;5091452;28;20051;-78
2021/10/11 04:11:35;;;;;;;14.30;4.55;;;9.10;96.00;;;;;;5091379;28;20071;-80
2021/10/11 04:14:00;;;;;;;15.25;4.30;;;9.10;96.10;;;;;;5091402;28;20032;-77
2021/10/11 04:16:26;;;;;;;21.58;5.25;;;9.10;96.10;;;;;;5092572;28;20381;-78
2021/10/11 04:18:52;;;;;;;18.98;4.72;;;9.10;96.20;;;;;;5091138;28;20032;-79
2021/10/11 04:21:18;;;;;;;14.88;4.22;;;9.10;96.20;;;;;;5057637;28;20067;-78
2021/10/11 04:23:43;;;;;;;14.40;4.20;;;9.10;96.20;;;;;;5092448;28;20035;-79
2021/10/11 04:26:09;;;;;;;15.00;5.57;;;9.10;96.20;;;;;;5074413;28;20054;-76
2021/10/11 04:28:35;;;;;;;12.95;4.25;;;9.10;96.20;;;;;;5092243;28;20153;-77
2021/10/11 04:31:01;;;;;;;14.25;3.95;;;9.00;96.20;;;;;;5092361;28;20085;-78
2021/10/11 04:33:27;;;;;;;;;;;9.00;96.20;;;;;;5074633;28;20024;-79
2021/10/11 04:35:52;;;;;;;17.05;3.78;;;9.00;96.20;;;;;;5092389;28;19919;-77
2021/10/11 04:38:18;;;;;;;16.10;4.20;;;8.90;96.10;;;;;;5092202;28;20028;-76
2021/10/11 04:40:44;;;;;;;13.85;4.20;;;8.90;96.10;;;;;;5090790;28;20457;-79
2021/10/11 04:43:10;;;;;;;17.42;5.05;;;8.90;96.20;;;;;;5090825;28;20046;-79
2021/10/11 04:45:36;;;;;;;12.80;3.90;;;8.90;96.30;;;;;;5090743;28;20094;-78
2021/10/11 04:48:04;;;;;;;17.08;4.25;;;8.90;96.30;;;;;;5090489;28;20026;-79
2021/10/11 04:50:32;;;;;;;11.38;3.78;;;8.90;96.30;;;;;;5091419;28;20027;-80
2021/10/11 04:52:59;;;;;;;17.75;4.82;;;8.90;96.30;;;;;;5090614;28;20031;-78
2021/10/11 04:55:26;;;;;;;19.70;4.05;;;8.90;96.40;;;;;;5091830;28;20053;-78
2021/10/11 04:57:51;;;;;;;15.90;4.95;;;9.00;96.40;;;;;;5090631;28;20111;-79
2021/10/11 05:00:19;;;;;;;18.60;3.78;;;9.00;96.40;;;;;;5091823;28;20114;-78
2021/10/11 05:02:45;;;;;;;14.20;3.92;;;9.00;96.40;;;;;;5091794;28;20050;-76
2021/10/11 05:05:11;;;;;;;13.27;3.38;;;9.00;96.40;;;;;;5091813;28;20074;-78
2021/10/11 05:07:37;;;;;;;13.15;3.17;;;9.00;96.40;;;;;;5091736;28;20390;-79
2021/10/11 05:10:04;;;;;;;12.75;3.55;;;8.90;96.40;;;;;;5091495;28;20060;-79
2021/10/11 05:12:30;;;;;;;9.93;3.72;;;9.00;96.50;;;;;;5090071;28;20021;-79
2021/10/11 05:14:56;;;;;;;19.08;4.60;;;8.90;96.50;;;;;;5091420;28;20103;-78
2021/10/11 05:17:21;;;;;;;13.35;3.50;;;8.90;96.50;;;;;;5091463;28;20038;-78
2021/10/11 05:19:47;;;;;;;19.10;4.68;;;8.90;96.50;;;;;;5090115;28;20451;-78
2021/10/11 05:22:13;;;;;;;12.85;3.83;;;8.90;96.50;;;;;;5091322;28;20032;-79
2021/10/11 05:24:39;;;;;;;8.60;3.75;;;8.90;96.60;;;;;;5090135;28;20032;-80
2021/10/11 05:27:05;;;;;;;17.40;5.07;;;9.00;96.70;;;;;;5089826;28;20040;-79
2021/10/11 05:29:30;;;;;;;11.35;4.43;;;9.00;96.70;;;;;;5073013;28;20028;-78
2021/10/11 05:31:56;;;;;;;14.20;5.85;;;9.00;96.70;;;;;;5089937;28;20374;-76
2021/10/11 05:34:22;;;;;;;11.52;3.83;;;9.00;96.70;;;;;;5090094;28;20043;-78
2021/10/11 05:36:48;;;;;;;17.45;5.00;;;9.00;96.70;;;;;;5089968;28;20470;-78
2021/10/11 05:39:13;;;;;;;19.83;5.47;;;9.10;96.70;;;;;;5091234;28;20024;-78
2021/10/11 05:41:39;;;;;;;16.27;4.72;;;9.10;96.70;;;;;;5091107;28;20032;-78
2021/10/11 05:44:05;;;;;;;13.20;5.03;;;9.10;96.60;;;;;;5073220;28;20537;-78
2021/10/11 05:46:31;;;;;;;15.70;4.78;;;9.10;96.60;;;;;;5091272;28;20028;-76
2021/10/11 05:48:57;;;;;;;15.35;5.72;;;9.10;96.60;;;;;;5073000;28;20044;-77
2021/10/11 05:51:23;;;;;;;16.95;5.32;;;9.10;96.60;;;;;;5089877;28;20543;-77
2021/10/11 05:53:48;;;;;;;19.10;5.20;;;9.10;96.60;;;;;;5089999;28;20037;-77
2021/10/11 05:56:14;;;;;;;19.45;5.57;;;9.10;96.60;;;;;;5090772;28;20032;-78
2021/10/11 05:58:39;;;;;;;22.90;6.03;;;9.00;96.60;;;;;;5072813;28;20124;-79
2021/10/11 06:01:05;;;;;;;16.60;5.72;;;9.00;96.60;;;;;;5091097;28;20545;-79
2021/10/11 06:03:31;;;;;;;18.77;6.32;;;9.00;96.70;;;;;;5093462;28;20103;-79
2021/10/11 06:05:56;;;;;;;18.08;6.43;;;9.00;96.70;;;;;;5095012;28;20036;-78
2021/10/11 06:08:22;;;;;;;12.77;5.35;;;9.10;96.70;;;;;;5093380;28;20028;-78
2021/10/11 06:10:48;;;;;;;13.73;5.32;;;9.10;96.70;;;;;;5076636;28;20097;-78
2021/10/11 06:13:14;;;;;;;15.10;5.63;;;9.10;96.70;;;;;;5093415;28;20386;-77
2021/10/11 06:15:40;;;;;;;12.73;5.10;;;9.10;96.70;;;;;;5094789;28;20099;-78
2021/10/11 06:18:05;;;;;;;11.30;4.97;;;9.10;96.70;;;;;;5095077;28;20343;-80
2021/10/11 06:20:31;;;;;;;13.27;5.85;;;9.10;96.70;;;;;;5095506;28;20359;-79
2021/10/11 06:22:57;;;;;;;13.32;5.53;;;9.10;96.70;;;;;;5077767;28;20055;-77
2021/10/11 06:25:23;;;;;;;11.52;5.30;;;9.10;96.60;;;;;;5094588;28;20039;-78
2021/10/11 06:27:48;;;;;;;9.02;4.63;;;9.10;96.60;;;;;;5093282;28;20070;-77
2021/10/11 06:30:14;;;;;;;11.05;4.78;;;9.10;96.70;;;;;;5076222;28;20047;-77
2021/10/11 06:32:41;;;;;;;11.70;4.85;;;9.10;96.70;;;;;;5093320;28;20064;-77
2021/10/11 06:35:06;;;;;;;;;;;9.10;96.80;;;;;;5094988;28;20024;-79
2021/10/11 06:37:32;;;;;;;12.77;5.32;;;9.20;96.80;;;;;;5093168;28;19915;-78
2021/10/11 06:39:58;;;;;;;15.77;4.97;;;9.20;96.70;;;;;;5076057;28;20482;-78
2021/10/11 06:42:24;;;;;;;13.07;5.78;;;9.20;96.60;;;;;;5094513;28;20043;-81
2021/10/11 06:44:49;;;;;;;20.20;5.72;;;9.20;96.60;;;;;;5092898;28;20043;-76
2021/10/11 06:47:15;;;;;;;10.45;5.10;;;9.20;96.60;;;;;;5093812;28;20393;-77
2021/10/11 06:49:42;;;;;;;16.58;5.22;;;9.20;96.60;;;;;;5092391;28;20089;-80
2021/10/11 06:52:08;;;;;;;10.95;5.25;;;9.20;96.60;;;;;;5092525;28;20085;-77
2021/10/11 06:54:34;;;;;;;16.50;6.03;;;9.20;96.60;;;;;;5093395;28;20028;-76
2021/10/11 06:56:59;;;;;;;9.88;5.22;;;9.20;96.60;;;;;;5092474;28;20206;-77
2021/10/11 06:59:25;;;;;;;11.98;5.40;;;9.20;96.60;;;;;;5093270;28;20085;-76
2021/10/11 07:01:51;;;;;;;9.63;5.22;;;9.20;96.70;;;;;;5093727;28;20032;-78
2021/10/11 07:04:17;;;;;;;12.15;5.90;;;9.30;96.70;;;;;;5093592;28;20398;-79
2021/10/11 07:06:43;;;;;;;13.63;5.72;;;9.30;96.70;;;;;;5092807;28;20028;-79
2021/10/11 07:09:08;;;;;;;16.45;5.63;;;9.30;96.70;;;;;;5092255;28;20044;-75
2021/10/11 07:11:34;;;;;;;10.95;5.50;;;9.40;96.70;;;;;;5093578;28;20031;-77
2021/10/11 07:14:00;;;;;;;18.63;6.13;;;9.40;96.70;;;;;;5092894;28;20020;-77
2021/10/11 07:16:26;;;;;;;15.75;6.57;;;9.40;96.80;;;;;;5092063;28;20028;-76
2021/10/11 07:18:51;;;;;;;16.58;6.88;;;9.50;96.80;;;;;;5093457;28;20124;-78
2021/10/11 07:21:17;;;;;;;17.42;6.68;;;9.60;96.90;;;;;;5058575;28;20083;-77
2021/10/11 07:23:43;;;;;;;21.25;6.78;;;9.60;96.90;;;;;;5093455;28;20028;-76
2021/10/11 07:26:09;;;;;;;18.13;5.57;;;9.70;96.80;;;;;;5058412;28;20498;-78
2021/10/11 07:28:35;;;;;;;17.63;6.07;;;9.70;96.80;;;;;;5058212;28;20129;-77
2021/10/11 07:31:01;;;;;;;20.70;5.57;;;9.80;96.80;;;;;;5091870;28;20035;-77
2021/10/11 07:33:27;;;;;;;;;;;9.80;96.80;;;;;;5094276;28;20512;-75
2021/10/11 07:35:53;;;;;;;15.85;5.07;;;9.90;96.80;;;;;;5091953;28;19908;-78
2021/10/11 07:38:19;;;;;;;18.10;5.47;;;10.00;96.70;;;;;;5093104;28;20032;-77
2021/10/11 07:40:45;;;;;;;19.67;5.43;;;10.00;96.70;;;;;;5093505;28;20043;-75
2021/10/11 07:43:11;;;;;;;14.88;4.95;;;10.00;96.60;;;;;;5092953;28;20162;-79
2021/10/11 07:45:37;;;;;;;23.67;5.82;;;10.00;96.60;;;;;;5092455;28;20111;-76
2021/10/11 07:48:03;;;;;;;22.15;5.05;;;10.00;96.70;;;;;;5091583;28;20065;-77
2021/10/11 07:50:29;;;;;;;24.70;6.05;;;10.00;96.70;;;;;;5092767;28;20036;-78
2021/10/11 07:52:55;;;;;;;32.58;5.70;;;10.00;96.80;;;;;;5091336;28;20039;-78
2021/10/11 07:55:21;;;;;;;;;;;10.00;96.80;;;;;;5093403;28;20040;-78
2021/10/11 07:57:47;;;;;;;28.63;5.70;;;10.10;96.90;;;;;;5092659;28;19904;-79
2021/10/11 08:00:16;;;;;;;26.33;5.90;;;10.20;96.70;;;;;;5091585;28;20039;-77
2021/10/11 08:02:42;;;;;;;29.35;7.28;;;10.20;96.80;;;;;;5092359;28;20177;-79
2021/10/11 08:05:09;;;;;;;17.70;5.72;;;10.30;96.90;;;;;;5091374;28;20257;-78
2021/10/11 08:07:35;;;;;;;;;;;10.30;96.90;;;;;;5091835;28;20031;-79
2021/10/11 08:10:01;;;;;;;17.60;6.18;;;10.40;96.90;;;;;;5079171;28;20006;-79
2021/10/11 08:12:27;;;;;;;17.23;4.90;;;10.50;96.80;;;;;;5101751;28;20356;-78
2021/10/11 08:14:52;;;;;;;;;;;10.60;96.90;;;;;;5103916;28;20032;-77
2021/10/11 08:17:18;;;;;;;19.38;5.70;;;10.70;96.90;;;;;;5101048;28;19918;-78
2021/10/11 08:19:44;;;;;;;13.00;5.55;;;10.80;96.80;;;;;;5101155;28;20063;-77
2021/10/11 08:22:10;;;;;;;11.63;4.32;;;10.90;96.70;;;;;;5093078;28;20533;-76
2021/10/11 08:24:36;;;;;;;14.27;4.35;;;10.90;96.70;;;;;;5104096;28;20029;-76
2021/10/11 08:27:01;;;;;;;13.70;4.32;;;11.00;96.80;;;;;;5100584;28;20427;-78
2021/10/11 08:29:27;;;;;;;10.75;4.53;;;11.10;96.70;;;;;;5102394;28;20023;-75
2021/10/11 08:31:53;;;;;;;10.98;4.13;;;11.10;96.60;;;;;;5099451;28;20466;-78
2021/10/11 08:34:22;;;;;;;16.60;4.45;;;11.20;96.70;;;;;;5099810;28;20024;-78
2021/10/11 08:36:47;;;;;;;11.85;4.22;;;11.30;96.70;;;;;;5100966;28;20382;-75
2021/10/11 08:39:13;;;;;;;12.25;4.32;;;11.40;96.70;;;;;;5101137;28;20028;-76
2021/10/11 08:41:39;;;;;;;13.95;4.18;;;11.40;96.60;;;;;;5101879;28;20388;-77
2021/10/11 08:44:05;;;;;;;10.63;4.22;;;11.50;96.50;;;;;;5099140;28;20028;-76
2021/10/11 08:46:31;;;;;;;14.25;4.82;;;11.50;96.40;;;;;;5102177;28;20390;-77
2021/10/11 08:48:59;;;;;;;16.00;4.60;;;11.50;96.30;;;;;;5099837;28;20075;-77
2021/10/11 08:51:24;;;;;;;19.42;4.55;;;11.50;96.40;;;;;;5102367;28;20051;-74
2021/10/11 08:53:50;;;;;;;13.82;6.68;;;11.60;96.50;;;;;;5099900;28;20026;-76
2021/10/11 08:56:16;;;;;;;14.98;6.80;;;11.70;96.50;;;;;;5101548;28;20030;-77
2021/10/11 08:58:50;;;;;;;17.15;6.05;;;11.70;96.40;;;;;;5083759;28;20484;-78
2021/10/11 09:01:20;;;;;;;13.90;5.65;;;11.80;96.40;;;;;;5101547;28;20036;-78
2021/10/11 09:03:46;;;;;;;8.68;3.55;;;11.90;96.20;;;;;;5103183;28;20043;-76
2021/10/11 09:06:13;;;;;;;11.60;3.83;;;12.00;96.20;;;;;;5100175;28;20024;-76
2021/10/11 09:08:40;;;;;;;8.88;3.90;;;12.00;96.10;;;;;;5103121;28;20042;-75
2021/10/11 09:11:14;;;;;;;8.73;4.40;;;12.10;96.20;;;;;;5101128;28;20012;-76
2021/10/11 09:13:43;;;;;;;8.68;4.28;;;12.20;96.00;;;;;;5103334;28;20015;-78
2021/10/11 09:16:15;;;;;;;9.50;4.20;;;12.20;96.00;;;;;;5105086;28;20098;-77
2021/10/11 09:18:47;;;;;;;11.15;4.40;;;12.40;96.10;;;;;;5105589;28;20021;-77
2021/10/11 09:21:12;;;;;;;22.10;6.93;;;12.70;96.10;;;;;;5100099;28;20027;-76
2021/10/11 09:23:38;;;;;;;8.98;4.07;;;13.10;96.10;;;;;;5111499;28;20392;-79
2021/10/11 09:26:19;;;;;;;14.48;5.70;;;13.30;95.50;;;;;;5089125;28;20039;-76
2021/10/11 09:28:53;;;;;;;13.98;4.50;;;13.60;95.20;;;;;;5103334;28;20074;-77
2021/10/11 09:31:19;;;;;;;18.63;6.32;;;13.70;94.90;;;;;;5105489;28;20024;-77
2021/10/11 09:33:45;;;;;;;11.98;5.15;;;13.90;94.90;;;;;;5097937;28;20024;-77
2021/10/11 09:36:20;;;;;;;11.45;4.53;;;14.20;95.00;;;;;;5095117;28;20088;-76
2021/10/11 09:38:57;;;;;;;8.83;3.77;;;14.60;94.90;;;;;;5102152;28;20050;-78
2021/10/11 09:41:23;;;;;;;11.50;4.57;;;14.90;94.50;;;;;;5113136;28;20032;-78
2021/10/11 09:43:49;;;;;;;11.13;3.92;;;15.10;94.10;;;;;;5090495;28;20047;-77
2021/10/11 09:46:18;;;;;;;14.00;4.85;;;15.10;93.70;;;;;;5103965;28;20096;-79
2021/10/11 09:48:58;;;;;;;9.82;4.05;;;15.30;93.70;;;;;;5108367;28;20519;-76
2021/10/11 09:51:24;;;;;;;10.20;3.55;;;15.70;93.40;;;;;;5095740;28;20035;-78
2021/10/11 09:54:00;;;;;;;9.57;4.22;;;15.90;93.00;;;;;;5098576;28;20120;-77
2021/10/11 09:56:27;;;;;;;12.60;4.28;;;16.00;92.70;;;;;;5078368;28;20115;-76
2021/10/11 09:58:54;;;;;;;10.23;4.25;;;16.30;92.60;;;;;;5095780;28;20028;-77
2021/10/11 10:01:22;;;;;;;12.35;4.20;;;16.50;92.30;;;;;;5107288;28;20434;-75
2021/10/11 10:03:48;;;;;;;9.43;3.95;;;16.70;91.90;;;;;;5108386;28;20069;-77
2021/10/11 10:06:14;;;;;;;11.43;4.10;;;16.70;91.30;;;;;;5101507;28;20030;-76
2021/10/11 10:08:40;;;;;;;;;;;16.70;91.20;;;;;;5105353;28;20033;-74
2021/10/11 10:11:07;;;;;;;14.02;3.65;;;17.10;91.90;;;;;;5105445;28;20021;-76
2021/10/11 10:13:47;;;;;;;9.80;3.50;;;17.70;92.30;;;;;;5108833;28;20051;-74
2021/10/11 10:16:14;;;;;;;11.77;4.05;;;18.40;91.20;;;;;;5098221;28;20058;-76
2021/10/11 10:18:45;;;;;;;13.77;4.00;;;18.60;90.20;;;;;;5107846;28;20023;-76
2021/10/11 10:21:31;;;;;;;12.23;3.40;;;18.70;89.20;;;;;;5108016;28;20069;-75
2021/10/11 10:23:57;;;;;;;11.40;3.35;;;18.80;88.40;;;;;;5099919;28;20031;-76
2021/10/11 10:26:35;;;;;;;9.27;3.55;;;19.00;88.00;;;;;;5104554;28;20103;-78
2021/10/11 10:29:21;;;;;;;12.95;4.95;;;19.30;87.40;;;;;;5106989;28;20023;-74
2021/10/11 10:31:47;;;;;;;10.68;3.88;;;20.30;88.20;;;;;;5105617;28;20024;-74
2021/10/11 10:34:17;;;;;;;;;;;21.30;86.70;;;;;;5107417;28;20477;-75
2021/10/11 10:36:44;;;;;;;11.02;3.08;;;21.40;85.10;;;;;;5098525;28;19904;-76
2021/10/11 10:39:12;;;;;;;10.73;3.42;;;21.50;82.80;;;;;;5101257;28;20031;-77
2021/10/11 10:41:42;;;;;;;8.85;3.42;;;21.50;80.20;;;;;;5095908;28;20272;-76
2021/10/11 10:44:20;;;;;;;9.95;3.90;;;21.40;78.60;;;;;;5097998;28;20405;-78
2021/10/11 10:46:57;;;;;;;10.48;4.10;;;21.40;78.00;;;;;;5109321;28;20106;-77
2021/10/11 10:49:35;;;;;;;23.52;4.47;;;22.10;79.20;;;;;;5097406;28;20102;-77
2021/10/11 10:52:12;;;;;;;12.02;3.55;;;22.90;77.10;;;;;;5099583;28;20019;-76
2021/10/11 10:54:49;;;;;;;10.65;3.55;;;23.10;75.70;;;;;;5104697;28;20378;-76
2021/10/11 10:57:24;;;;;;;9.60;3.58;;;23.10;74.70;;;;;;5112143;28;20020;-79
2021/10/11 10:59:52;;;;;;;9.82;3.38;;;22.80;73.40;;;;;;5113584;28;20023;-75
2021/10/11 11:02:18;;;;;;;11.30;3.83;;;22.40;72.80;;;;;;5100998;28;20039;-75
2021/10/11 11:05:03;;;;;;;;;;;21.90;72.90;;;;;;5101880;28;20458;-79
2021/10/11 11:07:39;;;;;;;8.32;3.00;;;21.40;73.00;;;;;;5101138;28;19939;-77
2021/10/11 11:10:20;;;;;;;14.85;3.45;;;20.80;72.50;;;;;;5100268;28;20023;-75
2021/10/11 11:13:16;;;;;;;10.15;3.30;;;20.30;73.70;;;;;;5097723;28;20027;-76
2021/10/11 11:15:52;;;;;;;9.00;3.00;;;20.30;74.50;;;;;;5100243;28;20036;-76
2021/10/11 11:18:20;;;;;;;11.20;3.97;;;20.70;75.20;;;;;;5101879;28;20012;-76
2021/10/11 11:20:47;;;;;;;12.73;4.43;;;21.10;74.80;;;;;;5106746;28;20532;-74
2021/10/11 11:23:15;;;;;;;10.98;3.83;;;21.30;73.80;;;;;;5104203;28;20066;-75
2021/10/11 11:25:44;;;;;;;10.32;3.53;;;21.10;73.50;;;;;;5102497;28;20011;-77
2021/10/11 11:28:12;;;;;;;9.82;4.03;;;21.40;74.40;;;;;;5104237;28;20030;-75
2021/10/11 11:30:38;;;;;;;8.52;3.92;;;21.90;73.90;;;;;;5102629;28;20025;-76
2021/10/11 11:33:09;;;;;;;9.70;3.65;;;22.10;73.00;;;;;;5105425;28;20030;-77
2021/10/11 11:35:37;;;;;;;10.40;3.22;;;22.20;71.90;;;;;;5106549;28;20023;-74
2021/10/11 11:38:06;;;;;;;13.77;4.45;;;22.00;70.90;;;;;;5109013;28;20024;-76
2021/10/11 11:40:35;;;;;;;12.13;4.28;;;21.70;70.30;;;;;;5099913;28;20020;-76
2021/10/11 11:43:03;;;;;;;11.50;3.60;;;21.50;70.90;;;;;;5094067;28;20028;-76
2021/10/11 11:45:50;;;;;;;15.52;4.20;;;21.60;71.40;;;;;;5097557;28;20031;-77
2021/10/11 11:48:31;;;;;;;9.77;3.97;;;21.70;71.20;;;;;;5102222;28;20040;-74
2021/10/11 11:51:07;;;;;;;12.80;4.90;;;21.80;70.90;;;;;;5103748;28;20051;-75
2021/10/11 11:53:37;;;;;;;11.13;3.47;;;21.90;70.90;;;;;;5099837;28;20032;-78
2021/10/11 11:56:05;;;;;;;17.20;5.60;;;22.20;70.40;;;;;;5104304;28;20323;-76
2021/10/11 11:58:35;;;;;;;11.27;4.15;;;22.20;69.80;;;;;;5101744;28;20043;-76
2021/10/11 12:01:17;;;;;;;11.73;4.60;;;22.20;69.30;;;;;;5103341;28;20020;-79
2021/10/11 12:03:57;;;;;;;11.65;4.75;;;22.10;69.50;;;;;;5095145;28;20488;-76
2021/10/11 12:06:27;;;;;;;37.90;18.42;;;21.90;68.80;;;;;;5095948;28;20028;-76
2021/10/11 12:08:53;;;;;;;11.23;4.40;;;21.30;68.40;;;;;;5100745;28;20039;-75
2021/10/11 12:11:19;;;;;;;;;;;20.90;69.50;;;;;;5099850;28;20111;-78
2021/10/11 12:13:46;;;;;;;8.90;3.30;;;20.80;70.70;;;;;;5101573;28;19911;-75
2021/10/11 12:16:17;;;;;;;11.65;3.70;;;20.70;70.90;;;;;;5102092;28;20064;-80
2021/10/11 12:18:43;;;;;;;12.43;4.03;;;20.90;71.30;;;;;;5098913;28;20404;-78
2021/10/11 12:21:24;;;;;;;;;;;21.30;70.80;;;;;;5102424;28;20075;-77
2021/10/11 12:23:51;;;;;;;9.95;3.20;;;21.30;70.70;;;;;;5098305;28;19904;-77
2021/10/11 12:26:17;;;;;;;11.18;3.95;;;21.30;70.40;;;;;;5083871;28;20454;-75
2021/10/11 12:28:54;;;;;;;11.30;3.08;;;21.10;70.00;;;;;;5097461;28;20447;-76
2021/10/11 12:31:21;;;;;;;;;;;20.90;69.90;;;;;;5107354;28;20022;-79
2021/10/11 12:33:47;;;;;;;7.50;2.92;;;20.70;70.50;;;;;;5095079;28;19908;-78
2021/10/11 12:36:12;;;;;;;;;;;20.60;70.60;;;;;;5102717;28;20032;-76
2021/10/11 12:38:41;;;;;;;13.90;4.78;;;20.50;70.90;;;;;;5103103;28;20374;-74
2021/10/11 12:41:14;;;;;;;15.02;5.03;;;20.60;70.50;;;;;;5104800;28;20047;-76
2021/10/11 12:43:56;;;;;;;17.38;4.93;;;20.50;70.20;;;;;;5100071;28;20115;-80
2021/10/11 12:46:23;;;;;;;16.77;5.60;;;20.40;69.90;;;;;;5109594;28;20097;-76
2021/10/11 12:49:01;;;;;;;15.13;4.80;;;20.10;70.00;;;;;;5105057;28;20113;-75